Time;durP1;ratioP1;P1;durP2;ratioP2;P2;SDS_P1;SDS_P2;PMS_P1;PMS_P2;Temp;Humidity;BMP_temperature;BMP_pressure;BME280_temperature;BME280_humidity;BME280_pressure;Samples;Min_cycle;Max_cycle;Signal;HPM_P1;HPM_P2
2022/09/15 00:01:18;;;;;;;3.35;2.88;;;;;;;13.22;70.85;93366.56;5070983;28;20039;-35
2022/09/15 00:03:44;;;;;;;3.50;3.17;;;;;;;13.21;71.10;93354.72;5070961;28;20317;-35
2022/09/15 00:06:10;;;;;;;6.35;3.30;;;;;;;13.00;71.92;93361.91;5070917;28;20403;-35
2022/09/15 00:08:36;;;;;;;3.30;2.88;;;;;;;13.06;72.36;93365.94;5070502;28;20024;-35
2022/09/15 00:11:07;;;;;;;3.03;2.50;;;;;;;12.93;72.03;93372.50;5070601;28;20016;-35
2022/09/15 00:13:34;;;;;;;3.88;2.83;;;;;;;12.84;72.39;93369.63;5070455;28;20024;-35
2022/09/15 00:15:59;;;;;;;3.67;3.20;;;;;;;12.91;72.14;93357.72;5070773;28;20122;-35
2022/09/15 00:18:25;;;;;;;4.63;2.85;;;;;;;13.06;72.12;93359.69;5070465;28;20500;-35
2022/09/15 00:20:51;;;;;;;3.30;2.92;;;;;;;13.19;71.22;93362.16;5070724;28;20078;-35
2022/09/15 00:23:17;;;;;;;4.55;3.33;;;;;;;13.13;71.03;93354.06;5070670;28;20122;-35
2022/09/15 00:25:50;;;;;;;3.15;2.53;;;;;;;12.99;71.82;93352.88;5078185;28;20016;-35
2022/09/15 00:28:19;;;;;;;3.47;2.85;;;;;;;13.02;71.44;93348.97;5066107;28;20020;-35
2022/09/15 00:30:46;;;;;;;;;;;;;;;13.13;71.13;93348.53;5071175;28;20039;-34
2022/09/15 00:33:13;;;;;;;2.50;2.30;;;;;;;13.10;70.86;93355.22;5070194;28;19912;-35
2022/09/15 00:35:39;;;;;;;3.38;2.85;;;;;;;13.09;70.30;93356.50;5070792;28;20039;-34
2022/09/15 00:38:06;;;;;;;3.05;2.78;;;;;;;12.98;70.83;93345.84;5070224;28;20027;-34
2022/09/15 00:40:32;;;;;;;3.25;2.55;;;;;;;13.01;71.02;93352.31;5070529;28;20034;-35
2022/09/15 00:42:58;;;;;;;6.70;2.30;;;;;;;13.02;70.84;93348.22;5070217;28;20017;-35
2022/09/15 00:45:23;;;;;;;2.50;2.30;;;;;;;12.77;71.61;93345.47;5085769;28;20359;-35
2022/09/15 00:47:49;;;;;;;3.00;2.70;;;;;;;12.78;71.72;93335.84;5090236;28;20020;-35
2022/09/15 00:50:16;;;;;;;3.03;2.70;;;;;;;12.86;70.72;93331.00;5090318;28;20020;-35
2022/09/15 00:52:49;;;;;;;2.40;2.17;;;;;;;12.89;70.46;93329.84;5084855;28;20027;-34
2022/09/15 00:55:19;;;;;;;2.40;2.10;;;;;;;12.86;70.96;93337.25;5052585;28;20447;-35
2022/09/15 00:57:50;;;;;;;3.05;2.70;;;;;;;12.55;71.23;93319.41;5052342;28;20107;-35
2022/09/15 01:00:18;;;;;;;3.47;2.40;;;;;;;12.65;71.64;93336.13;5052098;28;20056;-34
2022/09/15 01:02:44;;;;;;;2.17;1.98;;;;;;;12.44;72.71;93338.50;5070096;28;20021;-34
2022/09/15 01:05:17;;;;;;;2.53;2.33;;;;;;;12.50;73.14;93339.00;5052093;28;20029;-35
2022/09/15 01:07:57;;;;;;;1.77;1.50;;;;;;;12.48;73.16;93325.00;5069959;28;20028;-35
2022/09/15 01:10:28;;;;;;;3.70;2.50;;;;;;;12.48;72.33;93311.16;5070015;28;20027;-35
2022/09/15 01:12:59;;;;;;;2.70;2.20;;;;;;;12.60;72.00;93334.34;5069778;28;20060;-34
2022/09/15 01:15:31;;;;;;;3.65;2.92;;;;;;;12.45;72.55;93337.94;5069874;28;20017;-35
2022/09/15 01:18:03;;;;;;;3.72;3.13;;;;;;;12.50;72.38;93341.78;5052058;28;20024;-35
2022/09/15 01:20:50;;;;;;;3.70;3.03;;;;;;;12.53;72.11;93337.88;5069953;28;20028;-35
2022/09/15 01:23:24;;;;;;;3.42;2.85;;;;;;;12.47;72.61;93334.63;5071204;28;20432;-35
2022/09/15 01:26:15;;;;;;;3.28;2.67;;;;;;;12.49;72.32;93341.06;5073477;28;20024;-34
2022/09/15 01:28:56;;;;;;;3.47;2.67;;;;;;;12.30;72.75;93335.25;5065432;28;20041;-34
2022/09/15 01:33:02;;;;;;;4.82;3.20;;;;;;;12.45;72.96;93349.00;5093902;28;20080;-35
2022/09/15 01:34:23;;;;;;;3.15;2.63;;;;;;;12.47;72.88;93342.91;5093810;28;20078;-34
2022/09/15 01:36:56;;;;;;;6.43;2.80;;;;;;;12.44;72.96;93339.25;5075832;28;20028;-34
2022/09/15 01:39:28;;;;;;;3.53;2.85;;;;;;;12.40;73.26;93344.44;5075731;28;20039;-35
2022/09/15 01:41:56;;;;;;;3.60;3.20;;;;;;;12.41;72.81;93334.09;5075464;28;20030;-35
2022/09/15 01:44:27;;;;;;;4.28;2.83;;;;;;;12.46;72.36;93342.19;5093678;28;20047;-34
2022/09/15 01:47:03;;;;;;;3.03;2.72;;;;;;;12.47;72.01;93342.91;5075574;28;20019;-35
2022/09/15 01:49:33;;;;;;;2.92;2.53;;;;;;;12.14;72.35;93342.19;5093588;28;20111;-35
2022/09/15 01:51:59;;;;;;;4.10;2.70;;;;;;;12.21;72.79;93346.22;5075590;28;20124;-35
2022/09/15 01:54:28;;;;;;;2.83;2.53;;;;;;;12.26;72.70;93350.81;5055949;28;20078;-35
2022/09/15 01:56:54;;;;;;;3.50;2.95;;;;;;;12.19;72.65;93347.50;5055499;28;20052;-35
2022/09/15 01:59:20;;;;;;;3.38;3.00;;;;;;;12.17;72.92;93344.56;5055008;28;20051;-35
2022/09/15 02:01:57;;;;;;;3.63;3.10;;;;;;;12.02;73.36;93313.44;5073329;28;20024;-35
2022/09/15 02:04:45;;;;;;;4.70;3.33;;;;;;;12.12;73.31;93345.53;5055238;28;20032;-35
2022/09/15 02:07:30;;;;;;;3.08;2.60;;;;;;;12.25;72.12;93343.78;5073244;28;20027;-35
2022/09/15 02:10:19;;;;;;;2.88;2.20;;;;;;;12.16;72.28;93350.66;5072804;28;20561;-35
2022/09/15 02:13:10;;;;;;;2.55;2.33;;;;;;;12.23;71.86;93338.81;5062049;28;20557;-34
2022/09/15 02:16:03;;;;;;;2.67;2.22;;;;;;;12.16;72.40;93350.66;5055180;28;20449;-35
2022/09/15 02:18:44;;;;;;;3.03;2.60;;;;;;;12.19;72.73;93346.78;5068709;28;20047;-35
2022/09/15 02:21:39;;;;;;;2.53;2.33;;;;;;;12.04;73.23;93338.56;5072971;28;20036;-35
2022/09/15 02:24:10;;;;;;;201.25;26.65;;;;;;;11.94;73.81;93330.09;5054776;28;20507;-35
2022/09/15 02:26:38;;;;;;;5.00;4.38;;;;;;;12.04;74.28;93338.56;5054245;28;20052;-35
2022/09/15 02:29:05;;;;;;;2.60;2.30;;;;;;;12.03;73.71;93340.59;5085245;28;20687;-35
2022/09/15 02:31:33;;;;;;;146.40;14.60;;;;;;;12.00;73.33;93335.41;5075005;28;20055;-35
2022/09/15 02:34:07;;;;;;;43.28;5.93;;;;;;;11.94;73.69;93330.09;5092004;28;20126;-35
2022/09/15 02:36:33;;;;;;;57.25;5.88;;;;;;;11.93;73.70;93328.63;5074068;28;20031;-35
2022/09/15 02:39:07;;;;;;;84.32;8.40;;;;;;;12.02;73.05;93330.06;5092518;28;20028;-34
2022/09/15 02:41:34;;;;;;;20.75;4.15;;;;;;;11.83;73.25;93336.06;5074515;28;20024;-35
2022/09/15 02:44:00;;;;;;;7.18;4.35;;;;;;;11.95;72.29;93336.38;5074676;28;20031;-35
2022/09/15 02:46:26;;;;;;;12.25;4.93;;;;;;;11.78;73.19;93331.44;5092585;28;20024;-35
2022/09/15 02:48:52;;;;;;;7.70;4.60;;;;;;;11.72;73.07;93336.47;5092591;28;20411;-35
2022/09/15 02:51:17;;;;;;;24.70;4.53;;;;;;;11.53;74.08;93327.09;5092191;28;20024;-35
2022/09/15 02:53:45;;;;;;;4.65;3.88;;;;;;;11.61;73.97;93338.88;5078331;28;20043;-35
2022/09/15 02:56:10;;;;;;;6.55;3.83;;;;;;;11.78;73.34;93327.97;5072235;28;20047;-35
2022/09/15 02:58:36;;;;;;;7.38;4.07;;;;;;;11.74;73.45;93331.09;5071935;28;20535;-35
2022/09/15 03:01:03;;;;;;;15.55;4.35;;;;;;;11.74;73.93;93333.13;5071935;28;20762;-35
2022/09/15 03:03:29;;;;;;;10.50;4.32;;;;;;;11.70;73.25;93328.00;5071754;28;20023;-35
2022/09/15 03:06:15;;;;;;;4.82;4.05;;;;;;;11.58;73.10;93312.34;5071825;28;20093;-35
2022/09/15 03:08:41;;;;;;;10.77;4.35;;;;;;;11.77;73.26;93335.53;5071631;28;20024;-35
2022/09/15 03:11:06;;;;;;;14.10;4.85;;;;;;;11.67;72.99;93333.91;5071842;28;20094;-35
2022/09/15 03:13:32;;;;;;;4.03;3.63;;;;;;;11.62;73.76;93332.78;5071952;28;20419;-35
2022/09/15 03:15:57;;;;;;;9.35;4.60;;;;;;;11.61;73.59;93334.06;5071439;28;20016;-35
2022/09/15 03:18:23;;;;;;;4.40;4.00;;;;;;;11.54;73.92;93332.09;5071526;28;20031;-34
2022/09/15 03:20:48;;;;;;;4.97;3.85;;;;;;;11.62;73.23;93335.56;5071745;28;20031;-35
2022/09/15 03:23:14;;;;;;;7.32;3.95;;;;;;;11.70;72.67;93339.06;5071398;28;20020;-35
2022/09/15 03:25:39;;;;;;;10.48;3.70;;;;;;;11.62;73.47;93343.84;5070870;28;20400;-35
2022/09/15 03:28:05;;;;;;;8.52;3.47;;;;;;;11.65;73.29;93342.00;5075955;28;20023;-34
2022/09/15 03:30:30;;;;;;;4.38;3.65;;;;;;;11.65;73.45;93350.31;5091499;28;20505;-35
2022/09/15 03:32:55;;;;;;;3.72;3.38;;;;;;;11.66;73.50;93354.53;5091310;28;20031;-35
2022/09/15 03:35:21;;;;;;;5.35;3.58;;;;;;;11.62;73.48;93349.38;5091375;28;20031;-35
2022/09/15 03:37:46;;;;;;;6.40;3.75;;;;;;;11.59;73.29;93349.75;5091386;28;20027;-34
2022/09/15 03:40:12;;;;;;;5.45;3.53;;;;;;;11.48;72.92;93331.53;5091266;28;20020;-34
2022/09/15 03:42:37;;;;;;;11.13;3.33;;;;;;;11.49;73.57;93346.09;5091574;28;20024;-34
2022/09/15 03:45:03;;;;;;;8.07;3.08;;;;;;;11.36;73.94;93347.81;5091287;28;20051;-35
2022/09/15 03:47:28;;;;;;;6.45;2.83;;;;;;;11.40;74.34;93336.34;5090913;28;20034;-35
2022/09/15 03:49:54;;;;;;;6.72;3.50;;;;;;;11.43;74.46;93341.50;5091190;28;20505;-35
2022/09/15 03:52:19;;;;;;;11.05;3.33;;;;;;;11.49;73.51;93341.31;5088817;28;20027;-35
2022/09/15 03:54:47;;;;;;;7.43;4.05;;;;;;;11.35;73.37;93342.81;5070873;28;20052;-35
2022/09/15 03:57:12;;;;;;;16.98;3.45;;;;;;;11.26;73.49;93341.34;5053265;28;20532;-35
2022/09/15 03:59:38;;;;;;;4.65;3.47;;;;;;;11.30;73.22;93329.94;5070505;28;20079;-35
2022/09/15 04:02:03;;;;;;;5.88;3.67;;;;;;;11.30;74.22;93341.72;5070712;28;20025;-35
2022/09/15 04:04:28;;;;;;;6.93;3.40;;;;;;;11.34;74.03;93339.34;5070871;28;20024;-35
2022/09/15 04:06:54;;;;;;;5.45;3.58;;;;;;;11.26;74.29;93338.59;5070925;28;20031;-34
2022/09/15 04:09:20;;;;;;;3.03;2.72;;;;;;;11.21;74.60;93330.50;5070904;28;20472;-34
2022/09/15 04:11:46;;;;;;;4.63;2.90;;;;;;;11.19;74.75;93327.56;5070570;28;20020;-34
2022/09/15 04:14:11;;;;;;;4.30;3.35;;;;;;;11.16;75.46;93325.91;5070551;28;20024;-34
2022/09/15 04:16:37;;;;;;;15.70;3.65;;;;;;;11.23;75.63;93325.16;5070561;28;20109;-34
2022/09/15 04:19:02;;;;;;;9.77;2.92;;;;;;;11.28;74.84;93321.47;5070837;28;20086;-35
2022/09/15 04:21:30;;;;;;;3.75;3.22;;;;;;;11.32;74.56;93321.81;5070737;28;20523;-35
2022/09/15 04:23:56;;;;;;;4.40;3.90;;;;;;;11.41;74.30;93324.03;5070422;28;20044;-35
2022/09/15 04:26:30;;;;;;;3.67;3.38;;;;;;;11.38;74.30;93319.59;5069947;28;20463;-35
2022/09/15 04:28:56;;;;;;;11.27;3.63;;;;;;;11.45;74.04;93324.38;5082271;28;20020;-35
2022/09/15 04:31:23;;;;;;;5.00;3.33;;;;;;;11.40;74.24;93334.34;5090902;28;20031;-35
2022/09/15 04:33:52;;;;;;;23.42;3.78;;;;;;;11.23;74.53;93325.16;5090375;28;20028;-35
2022/09/15 04:36:20;;;;;;;7.63;4.03;;;;;;;11.37;74.08;93338.19;5090464;28;20069;-34
2022/09/15 04:38:46;;;;;;;19.20;8.88;;;;;;;11.43;73.50;93338.72;5090501;28;20264;-35
2022/09/15 04:41:13;;;;;;;21.10;10.30;;;;;;;11.42;73.39;93322.72;5090807;28;20012;-35
2022/09/15 04:43:39;;;;;;;21.30;9.07;;;;;;;11.39;73.68;93326.59;5090725;28;20071;-35
2022/09/15 04:46:05;;;;;;;19.77;8.65;;;;;;;11.36;74.00;93331.22;5090670;28;20029;-35
2022/09/15 04:48:31;;;;;;;16.17;7.57;;;;;;;11.33;73.93;93324.03;5090605;28;20522;-34
2022/09/15 04:51:05;;;;;;;10.93;6.47;;;;;;;11.18;73.99;93293.66;5090603;28;20467;-35
2022/09/15 04:53:30;;;;;;;6.03;4.80;;;;;;;11.50;74.72;93340.00;5078243;28;20021;-35
2022/09/15 04:56:12;;;;;;;8.15;4.25;;;;;;;11.46;75.43;93347.22;5070128;28;20020;-35
2022/09/15 04:58:48;;;;;;;6.68;4.53;;;;;;;11.57;75.36;93353.06;5071760;28;20118;-35
2022/09/15 05:01:33;;;;;;;5.22;3.40;;;;;;;11.62;75.68;93354.91;5074201;28;20017;-35
2022/09/15 05:04:00;;;;;;;5.75;3.95;;;;;;;11.68;75.38;93349.19;5074118;28;20021;-35
2022/09/15 05:06:26;;;;;;;17.60;4.50;;;;;;;11.80;75.37;93359.28;5074147;28;20077;-35
2022/09/15 05:08:54;;;;;;;2.80;1.73;;;;;;;11.96;75.16;93365.50;5073978;28;20389;-35
2022/09/15 05:11:20;;;;;;;3.95;2.17;;;;;;;12.04;75.35;93355.16;5074075;28;20107;-35
2022/09/15 05:13:46;;;;;;;2.83;2.33;;;;;;;12.03;75.98;93348.88;5073867;28;20037;-35
2022/09/15 05:16:17;;;;;;;2.13;1.70;;;;;;;12.13;76.01;93349.00;5073806;28;20112;-35
2022/09/15 05:18:44;;;;;;;1.25;1.00;;;;;;;12.26;76.50;93342.50;5073907;28;20564;-35
2022/09/15 05:21:12;;;;;;;2.30;1.88;;;;;;;12.41;76.05;93342.41;5073846;28;20079;-35
2022/09/15 05:23:38;;;;;;;1.33;1.23;;;;;;;12.50;76.15;93344.53;5056029;28;20019;-35
2022/09/15 05:26:10;;;;;;;1.13;1.02;;;;;;;12.54;76.03;93331.06;5083948;28;20038;-35
2022/09/15 05:28:37;;;;;;;1.23;1.10;;;;;;;12.73;75.76;93334.06;5085179;28;20028;-35
2022/09/15 05:31:08;;;;;;;0.57;0.57;;;;;;;12.87;75.27;93333.19;5073657;28;20511;-35
2022/09/15 05:33:34;;;;;;;0.65;0.65;;;;;;;12.98;74.92;93340.31;5073495;28;20576;-35
2022/09/15 05:35:59;;;;;;;1.08;0.93;;;;;;;12.91;75.11;93325.22;5073677;28;20055;-35
2022/09/15 05:38:27;;;;;;;1.40;1.30;;;;;;;13.23;74.65;93338.25;5073493;28;20107;-35
2022/09/15 05:40:53;;;;;;;1.27;0.93;;;;;;;13.30;74.40;93328.41;5055594;28;20021;-35
2022/09/15 05:43:19;;;;;;;0.35;0.35;;;;;;;13.48;74.23;93336.19;5073283;28;20039;-35
2022/09/15 05:45:53;;;;;;;0.40;0.40;;;;;;;13.59;74.25;93335.69;5073268;28;20025;-35
2022/09/15 05:48:19;;;;;;;0.30;0.30;;;;;;;13.75;74.20;93325.16;5073273;28;20074;-35
2022/09/15 05:50:48;;;;;;;0.32;0.32;;;;;;;13.75;75.01;93319.63;5073343;28;20055;-35
2022/09/15 05:53:14;;;;;;;0.57;0.57;;;;;;;13.97;74.93;93331.75;5082845;28;20028;-35
2022/09/15 05:55:40;;;;;;;0.30;0.30;;;;;;;14.08;75.50;93325.66;5093664;28;20028;-35
2022/09/15 05:58:05;;;;;;;0.43;0.43;;;;;;;14.07;76.05;93318.66;5093606;28;20424;-35
2022/09/15 06:00:31;;;;;;;0.50;0.50;;;;;;;14.21;76.01;93316.97;5093195;28;20512;-35
2022/09/15 06:02:56;;;;;;;2.70;0.90;;;;;;;14.31;76.29;93312.25;5093508;28;20046;-35
2022/09/15 06:05:22;;;;;;;0.50;0.50;;;;;;;14.49;76.11;93312.94;5093478;28;20519;-35
2022/09/15 06:07:47;;;;;;;0.95;0.95;;;;;;;14.77;75.19;93301.94;5093421;28;20514;-35
2022/09/15 06:10:12;;;;;;;0.77;0.77;;;;;;;15.11;73.60;93296.19;5093164;28;20403;-35
2022/09/15 06:12:38;;;;;;;1.65;0.85;;;;;;;15.36;72.82;93282.03;5092958;28;20114;-35
2022/09/15 06:15:04;;;;;;;2.22;2.00;;;;;;;15.64;71.39;93284.13;5093071;28;20043;-35
2022/09/15 06:17:32;;;;;;;9.07;3.22;;;;;;;15.88;70.70;93280.28;5093209;28;20032;-35
2022/09/15 06:19:58;;;;;;;3.95;1.75;;;;;;;16.00;70.32;93288.78;5092962;28;20032;-35
2022/09/15 06:22:24;;;;;;;0.43;0.43;;;;;;;16.20;69.36;93287.41;5092715;28;20035;-35
2022/09/15 06:24:49;;;;;;;0.40;0.40;;;;;;;16.27;69.90;93289.31;5092123;28;20097;-35
2022/09/15 06:27:14;;;;;;;0.47;0.47;;;;;;;16.47;69.70;93290.00;5092854;28;20024;-35
2022/09/15 06:29:40;;;;;;;0.80;0.80;;;;;;;16.55;68.86;93276.66;5074748;28;20089;-35
2022/09/15 06:32:05;;;;;;;0.85;0.85;;;;;;;16.78;68.30;93293.59;5072408;28;20032;-35
2022/09/15 06:34:31;;;;;;;0.10;0.10;;;;;;;16.94;68.12;93296.72;5072646;28;20028;-35
2022/09/15 06:36:58;;;;;;;1.10;0.47;;;;;;;17.03;68.93;93302.28;5072356;28;20024;-35
2022/09/15 06:39:24;;;;;;;0.20;0.20;;;;;;;17.24;68.88;93298.78;5072643;28;20123;-35
2022/09/15 06:41:49;;;;;;;0.40;0.40;;;;;;;17.48;68.03;93296.91;5072502;28;20077;-35
2022/09/15 06:44:15;;;;;;;0.47;0.47;;;;;;;17.78;66.78;93293.31;5072601;28;20021;-35
2022/09/15 06:46:40;;;;;;;0.65;0.40;;;;;;;18.08;66.14;93284.78;5072196;28;20043;-35
2022/09/15 06:49:06;;;;;;;0.68;0.68;;;;;;;18.37;65.07;93283.78;5072170;28;20515;-35
2022/09/15 06:51:34;;;;;;;0.35;0.35;;;;;;;18.75;64.38;93289.00;5072089;28;20020;-35
2022/09/15 06:54:01;;;;;;;1.33;1.20;;;;;;;19.31;62.42;93289.63;5087996;28;20519;-35
2022/09/15 06:56:27;;;;;;;0.57;0.57;;;;;;;19.76;61.23;93297.81;5074252;28;20051;-35
2022/09/15 06:58:53;;;;;;;0.25;0.25;;;;;;;20.26;60.07;93281.09;5092013;28;20192;-35
2022/09/15 07:01:27;;;;;;;0.55;0.32;;;;;;;20.83;57.89;93284.91;5092213;28;20024;-35
2022/09/15 07:03:53;;;;;;;2.75;1.40;;;;;;;21.60;55.42;93281.97;5092022;28;20024;-35
2022/09/15 07:06:19;;;;;;;0.20;0.20;;;;;;;22.40;51.54;93279.59;5092282;28;20023;-35
2022/09/15 07:08:45;;;;;;;0.30;0.30;;;;;;;23.31;49.39;93275.34;5092331;28;20028;-35
2022/09/15 07:11:11;;;;;;;0.77;0.77;;;;;;;24.19;47.60;93269.28;5073797;28;20495;-35
2022/09/15 07:13:37;;;;;;;0.30;0.30;;;;;;;24.83;45.76;93274.69;5073870;28;20028;-36
2022/09/15 07:16:04;;;;;;;0.30;0.30;;;;;;;25.13;43.35;93284.31;5091920;28;20059;-36
2022/09/15 07:18:29;;;;;;;0.00;0.00;;;;;;;25.42;41.51;93297.41;5091808;28;20101;-36
2022/09/15 07:21:06;;;;;;;0.17;0.17;;;;;;;25.87;41.96;93291.25;5091175;28;20020;-36
2022/09/15 07:23:33;;;;;;;0.43;0.43;;;;;;;26.24;40.23;93288.31;5091664;28;20031;-36
2022/09/15 07:26:09;;;;;;;0.73;0.73;;;;;;;26.76;39.86;93295.69;5080543;28;20032;-36
2022/09/15 07:28:35;;;;;;;0.05;0.05;;;;;;;27.16;38.61;93309.66;5080486;28;20102;-36
2022/09/15 07:31:01;;;;;;;0.08;0.08;;;;;;;27.36;37.46;93311.00;5091543;28;20115;-36
2022/09/15 07:33:27;;;;;;;5.57;1.45;;;;;;;27.66;37.35;93308.31;5091725;28;20036;-36
2022/09/15 07:35:53;;;;;;;0.20;0.20;;;;;;;27.46;36.54;93316.97;5091464;28;20483;-36
2022/09/15 07:38:18;;;;;;;0.10;0.10;;;;;;;27.63;36.08;93326.69;5091411;28;20073;-36
2022/09/15 07:40:44;;;;;;;0.32;0.32;;;;;;;28.04;35.26;93328.56;5091366;28;20039;-36
2022/09/15 07:43:10;;;;;;;2.17;1.67;;;;;;;28.51;34.75;93328.38;5091335;28;20487;-36
2022/09/15 07:45:36;;;;;;;0.55;0.55;;;;;;;29.04;33.73;93327.59;5091572;28;20027;-36
2022/09/15 07:48:02;;;;;;;0.50;0.50;;;;;;;29.70;33.02;93346.16;5091602;28;20507;-36
2022/09/15 07:50:27;;;;;;;0.30;0.30;;;;;;;30.13;32.00;93350.63;5091523;28;20557;-36
2022/09/15 07:52:56;;;;;;;0.17;0.17;;;;;;;30.91;30.65;93348.53;5091357;28;20051;-36
2022/09/15 07:55:22;;;;;;;0.93;0.82;;;;;;;31.81;28.70;93359.88;5091471;28;20020;-36
2022/09/15 07:57:56;;;;;;;0.75;0.70;;;;;;;32.47;29.30;93357.88;5073137;28;20024;-36
2022/09/15 08:00:22;;;;;;;0.00;0.00;;;;;;;33.07;28.68;93354.19;5090973;28;20119;-36
2022/09/15 08:02:47;;;;;;;0.80;0.57;;;;;;;33.51;28.69;93352.41;5091384;28;20051;-36
2022/09/15 08:05:12;;;;;;;3.75;0.75;;;;;;;34.15;26.96;93354.22;5091234;28;20024;-36
2022/09/15 08:07:38;;;;;;;0.10;0.10;;;;;;;34.35;23.20;93343.53;5091262;28;20015;-36
2022/09/15 08:10:04;;;;;;;0.25;0.25;;;;;;;34.16;24.27;93347.78;5091167;28;20111;-36
2022/09/15 08:12:30;;;;;;;0.20;0.20;;;;;;;33.60;24.16;93341.72;5090995;28;20111;-36
2022/09/15 08:14:55;;;;;;;0.30;0.30;;;;;;;33.52;23.13;93335.97;5078882;28;20029;-36
2022/09/15 08:17:21;;;;;;;1.50;1.13;;;;;;;33.70;24.13;93333.19;5070837;28;20526;-37
2022/09/15 08:19:46;;;;;;;0.55;0.40;;;;;;;33.59;23.00;93335.28;5070628;28;20020;-36
2022/09/15 08:22:12;;;;;;;0.00;0.00;;;;;;;34.24;23.22;93339.19;5070498;28;20423;-34
2022/09/15 08:24:38;;;;;;;0.00;0.00;;;;;;;34.55;23.19;93333.59;5070430;28;20532;-34
2022/09/15 08:27:03;;;;;;;0.00;0.00;;;;;;;34.66;23.05;93332.19;5070229;28;20025;-34
2022/09/15 08:29:29;;;;;;;0.00;0.00;;;;;;;35.02;22.03;93340.88;5086666;28;20095;-34
2022/09/15 08:31:54;;;;;;;0.20;0.20;;;;;;;35.76;21.90;93335.09;5090204;28;20035;-34
2022/09/15 08:34:20;;;;;;;0.13;0.13;;;;;;;36.51;21.23;93329.13;5089804;28;20028;-34
2022/09/15 08:36:46;;;;;;;0.00;0.00;;;;;;;36.89;21.81;93328.91;5090558;28;20031;-34
2022/09/15 08:39:11;;;;;;;0.00;0.00;;;;;;;37.00;20.36;93318.75;5090362;28;20024;-34
2022/09/15 08:41:45;;;;;;;0.30;0.30;;;;;;;37.39;18.79;93318.44;5090498;28;20035;-33
2022/09/15 08:44:28;;;;;;;11.60;1.27;;;;;;;37.44;18.93;93309.06;5090736;28;20046;-34
2022/09/15 08:47:13;;;;;;;10.13;0.75;;;;;;;37.32;19.42;93312.00;5090519;28;20035;-34
2022/09/15 08:49:58;;;;;;;1.38;0.70;;;;;;;37.18;18.95;93309.25;5090773;28;20103;-34
2022/09/15 08:52:38;;;;;;;0.05;0.05;;;;;;;37.54;19.29;93294.53;5090551;28;20198;-34
2022/09/15 08:55:12;;;;;;;0.00;0.00;;;;;;;38.18;19.23;93306.84;5090382;28;20020;-34
2022/09/15 08:57:38;;;;;;;0.10;0.10;;;;;;;38.61;19.02;93299.81;5072642;28;20108;-34
2022/09/15 09:00:04;;;;;;;0.00;0.00;;;;;;;38.73;18.59;93286.69;5090142;28;20123;-34
2022/09/15 09:03:07;;;;;;;0.10;0.10;;;;;;;39.00;18.04;93290.59;5090511;28;20040;-34
2022/09/15 09:05:50;;;;;;;0.10;0.10;;;;;;;38.96;18.49;93288.50;5090492;28;20055;-34
2022/09/15 09:08:22;;;;;;;0.10;0.10;;;;;;;38.94;17.14;93305.84;5090353;28;20495;-34
2022/09/15 09:10:54;;;;;;;0.45;0.35;;;;;;;38.97;16.82;93300.75;5081635;28;20036;-34
2022/09/15 09:13:28;;;;;;;0.10;0.10;;;;;;;38.60;17.61;93301.25;5052360;28;20029;-34
2022/09/15 09:16:25;;;;;;;0.20;0.20;;;;;;;38.71;16.92;93307.63;5052337;28;20036;-34
2022/09/15 09:19:24;;;;;;;0.00;0.00;;;;;;;39.23;18.42;93309.03;5069941;28;20166;-34
2022/09/15 09:21:57;;;;;;;0.00;0.00;;;;;;;38.88;17.32;93302.34;5051997;28;20112;-34
2022/09/15 09:24:34;;;;;;;2.45;1.60;;;;;;;39.25;18.16;93300.31;5070114;28;20020;-34
2022/09/15 09:26:59;;;;;;;0.47;0.22;;;;;;;39.58;18.34;93295.47;5051434;28;20500;-34
2022/09/15 09:29:30;;;;;;;1.17;0.70;;;;;;;39.82;18.21;93291.41;5085758;28;20121;-34
2022/09/15 09:31:57;;;;;;;0.35;0.28;;;;;;;39.87;17.67;93290.56;5090058;28;20031;-34
2022/09/15 09:34:36;;;;;;;0.30;0.15;;;;;;;39.76;16.40;93298.03;5071807;28;20035;-34
2022/09/15 09:37:11;;;;;;;0.45;0.45;;;;;;;39.97;17.77;93286.78;5072319;28;20028;-34
2022/09/15 09:39:37;;;;;;;0.20;0.20;;;;;;;40.51;17.10;93277.03;5090245;28;20028;-34
2022/09/15 09:42:04;;;;;;;0.88;0.65;;;;;;;40.21;16.18;93268.25;5090143;28;20522;-34
2022/09/15 09:44:33;;;;;;;0.00;0.00;;;;;;;40.54;16.53;93274.81;5091643;28;20028;-34
2022/09/15 09:46:59;;;;;;;0.10;0.10;;;;;;;40.81;16.37;93258.97;5093549;28;20032;-34
2022/09/15 09:49:28;;;;;;;0.15;0.15;;;;;;;40.75;17.12;93272.88;5093860;28;20027;-34
2022/09/15 09:51:58;;;;;;;1.05;0.73;;;;;;;38.82;16.65;93276.44;5075641;28;20023;-34
2022/09/15 09:54:27;;;;;;;0.40;0.30;;;;;;;39.33;16.49;93271.31;5093423;28;20034;-34
2022/09/15 09:56:54;;;;;;;3.05;0.95;;;;;;;39.83;16.17;93266.81;5093314;28;20479;-34
2022/09/15 09:59:40;;;;;;;0.00;0.00;;;;;;;39.75;17.56;93269.84;5093310;28;20055;-34
2022/09/15 10:02:17;;;;;;;0.10;0.10;;;;;;;40.00;18.20;93256.41;5093279;28;20107;-34
2022/09/15 10:04:48;;;;;;;1.10;0.73;;;;;;;39.92;17.21;93250.72;5093590;28;20020;-34
2022/09/15 10:07:17;;;;;;;0.45;0.30;;;;;;;39.76;16.71;93257.56;5082846;28;20032;-34
2022/09/15 10:09:54;;;;;;;0.52;0.45;;;;;;;38.98;17.18;93268.25;5055009;28;20035;-34
2022/09/15 10:12:25;;;;;;;0.00;0.00;;;;;;;38.65;18.23;93265.13;5072994;28;20028;-34
2022/09/15 10:14:55;;;;;;;0.80;0.80;;;;;;;38.96;17.55;93259.63;5072762;28;20495;-34
2022/09/15 10:17:23;;;;;;;0.13;0.13;;;;;;;38.90;17.99;93262.59;5055293;28;20027;-34
2022/09/15 10:19:53;;;;;;;0.40;0.40;;;;;;;39.51;16.99;93253.66;5054946;28;20312;-34
2022/09/15 10:22:38;;;;;;;0.32;0.30;;;;;;;40.37;17.12;93250.56;5055202;28;20051;-34
2022/09/15 10:25:29;;;;;;;0.10;0.10;;;;;;;40.61;16.94;93244.28;5053640;28;20028;-34
2022/09/15 10:28:15;;;;;;;0.00;0.00;;;;;;;41.15;16.62;93233.59;5063588;28;20036;-34
2022/09/15 10:30:59;;;;;;;11.60;0.32;;;;;;;41.15;16.59;93245.88;5075597;28;20028;-34
2022/09/15 10:33:30;;;;;;;0.15;0.15;;;;;;;41.36;15.28;93243.94;5093114;28;20030;-34
2022/09/15 10:36:02;;;;;;;0.55;0.20;;;;;;;40.93;16.09;93234.84;5093012;28;20110;-34
2022/09/15 10:38:36;;;;;;;0.15;0.15;;;;;;;40.59;16.84;93226.91;5075225;28;20476;-34
2022/09/15 10:41:27;;;;;;;0.93;0.93;;;;;;;40.75;16.36;93235.25;5074405;28;20503;-34
2022/09/15 10:44:11;;;;;;;0.13;0.13;;;;;;;40.52;16.56;93237.94;5074429;28;20020;-34
2022/09/15 10:47:01;;;;;;;0.10;0.10;;;;;;;40.67;15.47;93232.53;5092869;28;20484;-33
2022/09/15 10:49:32;;;;;;;4.95;0.30;;;;;;;40.89;15.65;93234.94;5092509;28;20024;-34
2022/09/15 10:52:17;;;;;;;13.73;0.52;;;;;;;41.28;15.95;93241.22;5074334;28;20034;-34
2022/09/15 10:54:48;;;;;;;1.92;0.80;;;;;;;41.45;16.08;93239.34;5054629;28;20020;-34
2022/09/15 10:57:45;;;;;;;0.85;0.63;;;;;;;41.48;15.08;93240.00;5071540;28;20025;-34
2022/09/15 11:00:21;;;;;;;0.95;0.85;;;;;;;41.54;16.02;93242.75;5071850;28;20048;-34
2022/09/15 11:03:11;;;;;;;0.05;0.05;;;;;;;40.53;15.15;93241.53;5074420;28;20111;-33
2022/09/15 11:05:58;;;;;;;0.68;0.68;;;;;;;40.38;15.86;93229.53;5092130;28;20082;-34
2022/09/15 11:08:50;;;;;;;1.00;0.90;;;;;;;40.28;15.66;93234.84;5074050;28;20499;-34
2022/09/15 11:11:28;;;;;;;0.22;0.20;;;;;;;39.84;15.61;93228.47;5092297;28;20034;-34
2022/09/15 11:14:04;;;;;;;0.00;0.00;;;;;;;39.79;15.66;93227.13;5092297;28;20024;-34
2022/09/15 11:16:48;;;;;;;0.10;0.10;;;;;;;39.34;16.35;93223.63;5092169;28;20043;-34
2022/09/15 11:20:04;;;;;;;0.32;0.32;;;;;;;38.93;15.97;93212.03;5091867;28;20031;-34
2022/09/15 11:22:37;;;;;;;0.57;0.57;;;;;;;38.98;17.17;93204.75;5083517;28;20032;-34
2022/09/15 11:25:10;;;;;;;0.20;0.20;;;;;;;38.93;16.56;93202.66;5088682;28;20024;-34
2022/09/15 11:27:42;;;;;;;0.00;0.00;;;;;;;38.23;17.67;93213.75;5071945;28;20021;-34
2022/09/15 11:30:17;;;;;;;0.85;0.85;;;;;;;37.79;17.57;93202.81;5073593;28;20114;-34
2022/09/15 11:32:58;;;;;;;1.08;0.73;;;;;;;37.39;17.90;93203.25;5073529;28;20024;-34
2022/09/15 11:35:35;;;;;;;0.52;0.43;;;;;;;36.61;19.58;93210.38;5091559;28;20112;-34
2022/09/15 11:38:23;;;;;;;0.05;0.05;;;;;;;35.76;19.67;93202.94;5091525;28;20111;-33
2022/09/15 11:41:17;;;;;;;0.88;0.80;;;;;;;35.29;20.90;93203.78;5091434;28;20151;-34
2022/09/15 11:44:05;;;;;;;0.03;0.03;;;;;;;34.52;21.21;93203.13;5069899;28;20067;-33
2022/09/15 11:46:52;;;;;;;0.73;0.73;;;;;;;34.20;21.49;93204.50;5091615;28;20019;-33
2022/09/15 11:49:20;;;;;;;0.20;0.20;;;;;;;33.91;21.85;93191.53;5091615;28;20032;-34